Warrensburg, New York
Current Conditions -  °F | °C
As of 2:53 PM on Monday 24 Nov 2014 (Local Time) from KGFL Reporting Station
Few Clouds Few Clouds  
Wind Chill: 68°   Ceiling: Unl
Heat Index: 68°   Visibility: 10mi
Dew Point: 56°   Wind: 15mph
Humidity: 65%   Direction: 180°S
Pressure: 29.41"   Gusts: 28mph
Location:  43.5°N, 73.78°W
Report Text: KGFL 241953Z AUTO 18013G24KT 10SM FEW060 20/13 A2941 RMK AO2 SLP962 T02000133
Loading
Personal Weather Stations






























Interactive Weather Map New forecast layout! Learn more

10-Day Weather Forecast

Advertisements
Track Severe Weather on mobile